Time;durP1;ratioP1;P1;durP2;ratioP2;P2;SDS_P1;SDS_P2;PMS_P1;PMS_P2;Temp;Humidity;BMP_temperature;BMP_pressure;BME280_temperature;BME280_humidity;BME280_pressure;Samples;Min_cycle;Max_cycle;Signal;HPM_P1;HPM_P2
2021/12/10 00:01:24;;;;;;;28.35;20.85;;;;;;;;;;5091955;28;20384;-68
2021/12/10 00:03:51;;;;;;;27.27;20.13;;;;;;;;;;5091948;28;20024;-68
2021/12/10 00:06:20;;;;;;;62.60;34.00;;;;;;;;;;5091960;28;20085;-68
2021/12/10 00:08:56;;;;;;;35.38;24.30;;;230.80;2252.80;;;;;;5092482;28;20082;-67
2021/12/10 00:11:33;;;;;;;32.88;22.13;;;230.70;2252.80;;;;;;5095564;28;20094;-67
2021/12/10 00:14:00;;;;;;;36.85;25.95;;;230.90;2252.80;;;;;;5095820;28;20340;-67
2021/12/10 00:16:26;;;;;;;31.75;21.63;;;230.90;2252.80;;;;;;5095369;28;20205;-67
2021/12/10 00:18:55;;;;;;;30.45;22.38;;;;;;;;;;5095582;28;20535;-67
2021/12/10 00:21:22;;;;;;;24.38;19.27;;;;;;;;;;5095367;28;20078;-69
2021/12/10 00:23:50;;;;;;;30.05;21.55;;;231.00;2252.80;;;;;;5095631;28;20024;-67
2021/12/10 00:26:17;;;;;;;32.10;22.73;;;;;;;;;;5095279;28;20036;-67
2021/12/10 00:28:43;;;;;;;30.48;21.85;;;;;;;;;;5095410;28;20020;-68
2021/12/10 00:31:19;;;;;;;25.58;18.95;;;;;;;;;;5095235;28;20500;-68
2021/12/10 00:33:55;;;;;;;24.77;19.27;;;;;;;;;;5095455;28;20033;-67
2021/12/10 00:36:21;;;;;;;25.42;19.00;;;;;;;;;;5095167;28;20377;-67
2021/12/10 00:38:48;;;;;;;37.83;27.00;;;;;;;;;;5094993;28;20482;-68
2021/12/10 00:41:14;;;;;;;36.78;27.73;;;;;;;;;;5095273;28;20117;-66
2021/12/10 00:43:41;;;;;;;37.70;29.08;;;;;;;;;;5095094;28;20064;-67
2021/12/10 00:46:07;;;;;;;30.83;24.05;;;;;;;;;;5094885;28;20021;-67
2021/12/10 00:48:34;;;;;;;31.05;23.27;;;;;;;;;;5094828;28;20437;-67
2021/12/10 00:51:02;;;;;;;29.13;20.55;;;230.80;2252.80;;;;;;5094859;28;20020;-68
2021/12/10 00:53:28;;;;;;;28.20;20.88;;;230.80;2252.80;;;;;;5076846;28;20123;-70
2021/12/10 00:55:54;;;;;;;23.65;17.48;;;230.80;2252.80;;;;;;5095116;28;20090;-66
2021/12/10 00:58:21;;;;;;;26.23;17.85;;;;;;;;;;5094748;28;20401;-66
2021/12/10 01:00:55;;;;;;;24.40;17.52;;;230.80;2252.80;;;;;;5094849;28;20098;-66
2021/12/10 01:03:28;;;;;;;22.17;16.90;;;230.80;2252.80;;;;;;5094958;28;20489;-66
2021/12/10 01:06:00;;;;;;;21.30;15.82;;;230.80;2252.80;;;;;;5077422;28;20051;-68
2021/12/10 01:08:28;;;;;;;28.00;19.23;;;230.70;2252.80;;;;;;5094858;28;20437;-66
2021/12/10 01:11:12;;;;;;;28.85;20.42;;;230.80;2252.80;;;;;;5094790;28;20046;-67
2021/12/10 01:13:41;;;;;;;26.00;18.92;;;;;;;;;;5095040;28;20023;-66
2021/12/10 01:23:46;;;;;;;30.25;20.15;;;;;;;;;;5094528;28;20023;-66
2021/12/10 01:27:33;;;;;;;37.03;25.50;;;;;;;;;;5094561;28;20123;-67
2021/12/10 01:30:02;;;;;;;20.05;15.30;;;;;;;;;;5094253;28;20040;-67
2021/12/10 01:32:31;;;;;;;24.25;17.98;;;;;;;;;;5094122;28;20516;-67
2021/12/10 01:34:57;;;;;;;30.75;22.00;;;;;;;;;;5094186;28;20028;-67
2021/12/10 01:37:24;;;;;;;21.95;16.35;;;;;;;;;;5093931;28;20032;-67
2021/12/10 01:39:51;;;;;;;31.70;21.50;;;230.70;2252.80;;;;;;5094214;28;20028;-67
2021/12/10 01:45:18;;;;;;;21.80;16.63;;;230.70;2252.80;;;;;;5031877;28;20586;-67
2021/12/10 01:47:56;;;;;;;22.27;16.77;;;230.70;2252.80;;;;;;5031730;28;20040;-68
2021/12/10 01:50:23;;;;;;;26.77;19.38;;;230.80;2252.80;;;;;;5031683;28;20045;-66
2021/12/10 01:52:53;;;;;;;18.95;15.30;;;230.80;2252.80;;;;;;5031657;28;20523;-67
2021/12/10 01:55:21;;;;;;;19.10;15.07;;;230.70;2252.80;;;;;;5031578;28;20033;-66
2021/12/10 01:57:47;;;;;;;18.50;13.98;;;230.80;2252.80;;;;;;5031413;28;20037;-67
2021/12/10 02:00:15;;;;;;;16.20;12.73;;;230.70;2252.80;;;;;;5031572;28;20100;-66
2021/12/10 02:02:43;;;;;;;15.55;12.20;;;;;;;;;;5014108;28;20065;-70
2021/12/10 02:05:09;;;;;;;18.08;13.98;;;;;;;;;;5031511;28;20032;-69
2021/12/10 02:07:36;;;;;;;15.25;12.50;;;;;;;;;;5031450;28;20033;-67
2021/12/10 02:10:04;;;;;;;18.63;13.68;;;230.70;2252.80;;;;;;5031322;28;20034;-66
2021/12/10 02:12:33;;;;;;;20.70;15.43;;;;;;;;;;5031230;28;20144;-67
2021/12/10 02:15:03;;;;;;;33.13;21.90;;;230.70;2252.80;;;;;;5031308;28;20025;-66
2021/12/10 02:17:40;;;;;;;22.00;16.17;;;230.80;2252.80;;;;;;5030954;28;20033;-67
2021/12/10 02:20:32;;;;;;;19.15;14.20;;;230.80;2252.80;;;;;;5031204;28;20030;-68
2021/12/10 02:22:58;;;;;;;;;;;230.80;2252.80;;;;;;5084467;28;20036;-68
2021/12/10 02:25:27;;;;;;;15.82;12.18;;;;;;;;;;5093479;28;19998;-68
2021/12/10 02:27:54;;;;;;;17.10;13.25;;;;;;;;;;5093310;28;20066;-69
2021/12/10 02:30:24;;;;;;;17.52;12.80;;;230.60;2252.80;;;;;;5093205;28;20101;-68
2021/12/10 02:32:49;;;;;;;18.27;14.27;;;230.50;2252.80;;;;;;5093216;28;20016;-68
2021/12/10 02:35:16;;;;;;;19.05;14.73;;;230.60;2252.80;;;;;;5093288;28;20429;-68
2021/12/10 02:37:44;;;;;;;20.88;14.93;;;230.60;2252.80;;;;;;5093191;28;20370;-72
2021/12/10 02:40:13;;;;;;;17.83;13.07;;;230.60;2252.80;;;;;;5093317;28;20020;-69
2021/12/10 02:42:40;;;;;;;13.25;10.18;;;230.60;2252.80;;;;;;5093016;28;20089;-68
2021/12/10 02:45:08;;;;;;;11.52;9.18;;;230.60;2252.80;;;;;;5093230;28;20017;-70
2021/12/10 02:47:34;;;;;;;13.65;9.98;;;230.60;2252.80;;;;;;5092927;28;20027;-69
2021/12/10 02:50:00;;;;;;;14.23;11.05;;;230.40;2252.80;;;;;;5092838;28;20028;-69
2021/12/10 02:52:27;;;;;;;13.38;11.20;;;230.50;2252.80;;;;;;5092877;28;20027;-72
2021/12/10 02:54:57;;;;;;;20.70;16.05;;;230.50;2252.80;;;;;;5093038;28;20359;-71
2021/12/10 02:57:23;;;;;;;17.58;11.93;;;230.40;2252.80;;;;;;5092688;28;20440;-68
2021/12/10 02:59:49;;;;;;;11.43;9.65;;;230.40;2252.80;;;;;;5092744;28;20107;-68
2021/12/10 03:02:16;;;;;;;13.43;10.02;;;;;;;;;;5092857;28;20056;-68
2021/12/10 03:04:43;;;;;;;13.02;10.40;;;;;;;;;;5093064;28;20047;-69
2021/12/10 03:07:14;;;;;;;15.73;10.82;;;;;;;;;;5074716;28;20032;-68
2021/12/10 03:09:45;;;;;;;13.85;11.07;;;;;;;;;;5092784;28;20101;-68
2021/12/10 03:12:11;;;;;;;13.75;10.73;;;;;;;;;;5092581;28;20086;-68
2021/12/10 03:14:39;;;;;;;13.52;10.90;;;;;;;;;;5092730;28;20046;-69
2021/12/10 03:17:07;;;;;;;14.40;11.13;;;;;;;;;;5092531;28;20027;-69
2021/12/10 03:19:34;;;;;;;14.07;11.88;;;;;;;;;;5092773;28;20432;-69
2021/12/10 03:22:00;;;;;;;17.38;12.18;;;;;;;;;;5092761;28;20020;-69
2021/12/10 03:24:27;;;;;;;17.63;14.02;;;;;;;;;;5074517;28;20036;-69
2021/12/10 03:26:57;;;;;;;19.08;13.90;;;;;;;;;;5074589;28;20032;-69
2021/12/10 03:29:25;;;;;;;22.60;15.77;;;;;;;;;;5074295;28;20563;-69
2021/12/10 03:31:52;;;;;;;13.10;10.18;;;;;;;;;;5092528;28;20024;-68
2021/12/10 03:34:18;;;;;;;13.48;9.38;;;;;;;;;;5092614;28;20051;-69
2021/12/10 03:36:46;;;;;;;13.75;10.60;;;;;;;;;;5073805;28;20040;-69
2021/12/10 03:39:17;;;;;;;12.77;9.85;;;;;;;;;;5092475;28;20390;-69
2021/12/10 03:41:43;;;;;;;12.15;9.82;;;;;;;;;;5092536;28;20028;-69
2021/12/10 03:44:09;;;;;;;10.00;7.70;;;;;;;;;;5093719;28;20023;-69
2021/12/10 03:46:36;;;;;;;21.52;15.35;;;205.00;2252.80;;;;;;5096563;28;20052;-69
2021/12/10 03:49:04;;;;;;;16.17;12.70;;;205.00;2252.80;;;;;;5096377;28;20074;-69
2021/12/10 03:51:31;;;;;;;25.65;20.77;;;;;;;;;;5096640;28;20032;-69
2021/12/10 03:53:57;;;;;;;33.58;29.98;;;;;;;;;;5096315;28;20127;-69
2021/12/10 03:56:24;;;;;;;29.80;26.88;;;;;;;;;;5096329;28;20020;-69
2021/12/10 03:58:51;;;;;;;22.52;20.23;;;;;;;;;;5096296;28;20044;-69
2021/12/10 04:01:20;;;;;;;21.73;18.88;;;;;;;;;;5096443;28;20074;-69
2021/12/10 04:03:47;;;;;;;27.00;21.83;;;;;;;;;;5096075;28;20038;-68
2021/12/10 04:06:13;;;;;;;30.25;21.40;;;;;;;;;;5096047;28;20020;-69
2021/12/10 04:08:39;;;;;;;20.83;15.57;;;;;;;;;;5095890;28;20486;-68
2021/12/10 04:11:07;;;;;;;16.85;14.43;;;;;;;;;;5095894;28;20081;-67
2021/12/10 04:13:33;;;;;;;12.57;9.38;;;;;;;;;;5095963;28;20081;-69
2021/12/10 04:15:59;;;;;;;12.77;11.05;;;;;;;;;;5095946;28;20062;-69
2021/12/10 04:18:26;;;;;;;17.35;13.45;;;;;;;;;;5095780;28;20036;-70
2021/12/10 04:20:52;;;;;;;13.52;10.65;;;;;;;;;;5095844;28;20056;-68
2021/12/10 04:23:19;;;;;;;15.38;11.68;;;;;;;;;;5095658;28;20032;-68
2021/12/10 04:25:45;;;;;;;27.67;18.17;;;;;;;;;;5095730;28;20479;-68
2021/12/10 04:28:13;;;;;;;17.95;13.23;;;;;;;;;;5095520;28;20038;-68
2021/12/10 04:30:40;;;;;;;9.27;8.27;;;;;;;;;;5095434;28;20059;-68
2021/12/10 04:33:08;;;;;;;24.13;18.05;;;205.20;2252.80;;;;;;5095438;28;20024;-68
2021/12/10 04:35:35;;;;;;;20.33;17.25;;;;;;;;;;5095486;28;20028;-68
2021/12/10 04:38:01;;;;;;;76.40;35.63;;;205.40;2252.80;;;;;;5095871;28;20036;-67
2021/12/10 04:40:27;;;;;;;143.18;60.17;;;205.20;2252.80;;;;;;5095331;28;20048;-68
2021/12/10 04:42:53;;;;;;;77.65;37.95;;;204.90;2252.80;;;;;;5095583;28;20035;-67
2021/12/10 04:45:20;;;;;;;21.55;15.68;;;205.10;2252.80;;;;;;5077503;28;20025;-67
2021/12/10 04:47:47;;;;;;;21.30;15.57;;;205.00;2252.80;;;;;;5095195;28;20077;-70
2021/12/10 04:50:15;;;;;;;94.57;49.47;;;180.10;2252.80;;;;;;5095080;28;20027;-68
2021/12/10 04:52:41;;;;;;;54.03;32.08;;;205.00;2252.80;;;;;;5094825;28;20044;-68
2021/12/10 04:55:10;;;;;;;34.90;25.58;;;205.10;2252.80;;;;;;5094139;28;20412;-68
2021/12/10 04:57:36;;;;;;;28.38;20.38;;;205.20;2252.80;;;;;;5094581;28;20035;-68
2021/12/10 05:00:05;;;;;;;12.57;9.18;;;205.20;2252.80;;;;;;5095026;28;20391;-69
2021/12/10 05:02:33;;;;;;;11.52;8.88;;;205.10;2252.80;;;;;;5094844;28;20067;-67
2021/12/10 05:04:59;;;;;;;14.32;10.07;;;205.10;2252.80;;;;;;5095557;28;20077;-68
2021/12/10 05:07:30;;;;;;;19.52;12.68;;;;;;;;;;5076118;28;20559;-68
2021/12/10 05:09:56;;;;;;;14.13;11.13;;;;;;;;;;5094871;28;20019;-67
2021/12/10 05:12:22;;;;;;;24.65;18.30;;;;;;;;;;5094811;28;20385;-68
2021/12/10 05:14:49;;;;;;;21.92;15.82;;;;;;;;;;5094805;28;20020;-68
2021/12/10 05:17:16;;;;;;;16.65;13.02;;;;;;;;;;5094641;28;20043;-68
2021/12/10 05:19:42;;;;;;;22.75;16.80;;;;;;;;;;5094647;28;20023;-68
2021/12/10 05:22:10;;;;;;;41.28;25.02;;;;;;;;;;5094832;28;20028;-67
2021/12/10 05:24:36;;;;;;;66.32;38.33;;;;;;;;;;5094511;28;20479;-66
2021/12/10 05:27:02;;;;;;;32.33;22.30;;;;;;;;;;5076234;28;20028;-66
2021/12/10 05:29:29;;;;;;;33.83;24.17;;;;;;;;;;5094388;28;20048;-67
2021/12/10 05:31:56;;;;;;;29.65;20.40;;;;;;;;;;5094398;28;20475;-69
2021/12/10 05:34:22;;;;;;;28.48;21.05;;;;;;;;;;5094401;28;20085;-69
2021/12/10 05:36:48;;;;;;;24.15;18.08;;;;;;;;;;5094267;28;20068;-68
2021/12/10 05:39:15;;;;;;;27.38;20.38;;;205.20;2252.80;;;;;;5094399;28;20704;-67
2021/12/10 05:41:41;;;;;;;27.58;20.00;;;205.20;2252.80;;;;;;5094403;28;20359;-68
2021/12/10 05:44:07;;;;;;;35.72;25.20;;;205.20;2252.80;;;;;;5094119;28;20027;-67
2021/12/10 05:46:33;;;;;;;45.88;32.08;;;205.20;2252.80;;;;;;5094060;28;20012;-65
2021/12/10 05:49:00;;;;;;;33.55;25.33;;;205.30;2252.80;;;;;;5075414;28;20028;-68
2021/12/10 05:51:26;;;;;;;37.75;27.70;;;205.20;2252.80;;;;;;5094008;28;20073;-67
2021/12/10 05:53:52;;;;;;;31.98;25.55;;;205.20;2252.80;;;;;;5093694;28;20016;-67
2021/12/10 05:56:18;;;;;;;22.65;18.58;;;205.30;2252.80;;;;;;5094289;28;20035;-67
2021/12/10 05:58:45;;;;;;;27.48;21.27;;;205.20;2252.80;;;;;;5093908;28;20043;-67
2021/12/10 06:01:14;;;;;;;20.90;16.08;;;205.20;2252.80;;;;;;5093772;28;20416;-67
2021/12/10 06:03:51;;;;;;;24.02;18.17;;;204.90;2252.80;;;;;;5093682;28;20036;-67
2021/12/10 06:06:17;;;;;;;23.13;16.65;;;205.10;2252.80;;;;;;5093426;28;20035;-67
2021/12/10 06:08:43;;;;;;;24.02;19.17;;;;;;;;;;5093546;28;20386;-65
2021/12/10 06:11:09;;;;;;;24.98;19.60;;;;;;;;;;5093741;28;20387;-65
2021/12/10 06:13:35;;;;;;;30.10;21.27;;;;;;;;;;5093629;28;20020;-66
2021/12/10 06:16:01;;;;;;;29.42;23.13;;;;;;;;;;5093456;28;20387;-65
2021/12/10 06:18:27;;;;;;;24.50;19.55;;;;;;;;;;5093386;28;20493;-65
2021/12/10 06:20:54;;;;;;;30.95;20.92;;;180.10;2252.80;;;;;;5093355;28;20046;-66
2021/12/10 06:23:21;;;;;;;27.17;22.05;;;180.00;2252.80;;;;;;5093472;28;20025;-66
2021/12/10 06:25:47;;;;;;;31.48;24.63;;;179.90;2252.80;;;;;;5093357;28;20043;-66
2021/12/10 06:28:13;;;;;;;42.38;32.33;;;180.00;2252.80;;;;;;5093484;28;20032;-66
2021/12/10 06:30:42;;;;;;;45.40;31.38;;;180.00;2252.80;;;;;;5093262;28;20146;-65
2021/12/10 06:33:12;;;;;;;42.72;29.42;;;204.90;2252.80;;;;;;5093174;28;20032;-67
2021/12/10 06:35:40;;;;;;;36.28;28.38;;;205.00;2252.80;;;;;;5093174;28;20098;-65
2021/12/10 06:38:07;;;;;;;41.47;31.17;;;205.10;2252.80;;;;;;5092957;28;20032;-68
2021/12/10 06:40:34;;;;;;;43.55;31.23;;;205.10;2252.80;;;;;;5093204;28;20099;-67
2021/12/10 06:43:01;;;;;;;48.30;37.22;;;205.20;2252.80;;;;;;5093108;28;20028;-67
2021/12/10 06:45:28;;;;;;;58.63;44.22;;;205.20;2252.80;;;;;;5093188;28;20024;-67
2021/12/10 06:47:58;;;;;;;63.45;44.80;;;205.20;2252.80;;;;;;5093048;28;20020;-68
2021/12/10 06:50:26;;;;;;;62.42;42.67;;;205.20;2252.80;;;;;;5092742;28;20047;-67
2021/12/10 06:52:53;;;;;;;62.58;42.55;;;205.20;2252.80;;;;;;5092933;28;20016;-67
2021/12/10 06:55:19;;;;;;;49.65;36.67;;;205.20;2252.80;;;;;;5092778;28;20048;-68
2021/12/10 06:57:46;;;;;;;56.33;36.75;;;205.20;2252.80;;;;;;5092745;28;20064;-68
2021/12/10 07:00:42;;;;;;;40.35;30.65;;;205.20;2252.80;;;;;;5092751;28;20107;-67
2021/12/10 07:03:13;;;;;;;41.58;30.05;;;205.20;2252.80;;;;;;5010566;28;20045;-68
2021/12/10 07:05:39;;;;;;;;;;;205.20;2252.80;;;;;;5011231;28;20038;-67
2021/12/10 07:08:06;;;;;;;66.50;48.42;;;205.10;2252.80;;;;;;5010893;28;19926;-67
2021/12/10 07:10:32;;;;;;;61.83;46.08;;;205.10;2252.80;;;;;;5010965;28;20030;-68
2021/12/10 07:12:59;;;;;;;56.20;40.90;;;205.20;2252.80;;;;;;5010662;28;20083;-68
2021/12/10 07:15:25;;;;;;;66.28;48.00;;;205.20;2252.80;;;;;;5010906;28;20030;-68
2021/12/10 07:17:52;;;;;;;76.68;55.20;;;205.20;2252.80;;;;;;5010420;28;20582;-67
2021/12/10 07:20:22;;;;;;;78.88;50.50;;;205.20;2252.80;;;;;;5014023;28;20042;-68
2021/12/10 07:22:48;;;;;;;57.47;40.92;;;205.20;2252.80;;;;;;5014884;28;20504;-68
2021/12/10 07:25:14;;;;;;;55.75;38.58;;;205.30;2252.80;;;;;;5014754;28;20030;-68
2021/12/10 07:27:40;;;;;;;65.18;45.42;;;205.20;2252.80;;;;;;5014675;28;20042;-68
2021/12/10 07:30:08;;;;;;;60.13;38.38;;;205.20;2252.80;;;;;;5014449;28;20080;-67
2021/12/10 07:32:34;;;;;;;50.28;33.22;;;205.20;2252.80;;;;;;5014386;28;20030;-69
2021/12/10 07:35:00;;;;;;;41.08;29.20;;;205.20;2252.80;;;;;;5014664;28;20477;-68
2021/12/10 07:37:26;;;;;;;38.78;26.92;;;205.20;2252.80;;;;;;5014431;28;20021;-68
2021/12/10 07:39:52;;;;;;;43.08;26.77;;;205.20;2252.80;;;;;;5051241;28;20482;-67
2021/12/10 07:42:18;;;;;;;42.67;29.67;;;205.20;2252.80;;;;;;5096554;28;20024;-68
2021/12/10 07:44:44;;;;;;;52.88;36.97;;;205.20;2252.80;;;;;;5078284;28;20036;-68
2021/12/10 07:47:13;;;;;;;80.00;47.90;;;205.30;2252.80;;;;;;5096396;28;20032;-67
2021/12/10 07:49:43;;;;;;;62.10;38.50;;;205.40;2252.80;;;;;;5078080;28;20024;-67
2021/12/10 07:52:16;;;;;;;66.55;43.13;;;205.40;2252.80;;;;;;5096301;28;20032;-68
2021/12/10 07:54:44;;;;;;;57.22;39.15;;;205.30;2252.80;;;;;;5078060;28;20398;-67
2021/12/10 07:57:11;;;;;;;70.68;48.30;;;205.10;2252.80;;;;;;5096148;28;20032;-65
2021/12/10 07:59:37;;;;;;;95.82;60.22;;;205.30;2252.80;;;;;;5096361;28;20032;-67
2021/12/10 08:02:04;;;;;;;51.47;36.97;;;204.90;2252.80;;;;;;5096001;28;20073;-67
2021/12/10 08:04:30;;;;;;;50.38;38.25;;;204.90;2252.80;;;;;;5096055;28;20036;-66
2021/12/10 08:06:56;;;;;;;64.22;42.25;;;205.00;2252.80;;;;;;5096059;28;20016;-66
2021/12/10 08:09:22;;;;;;;61.92;40.47;;;205.00;2252.80;;;;;;5096005;28;20390;-66
2021/12/10 08:11:50;;;;;;;39.20;28.85;;;;;;;;;;5096303;28;20470;-67
2021/12/10 08:14:16;;;;;;;60.72;43.90;;;;;;;;;;5095754;28;20020;-68
2021/12/10 08:16:43;;;;;;;36.88;28.02;;;;;;;;;;5095654;28;20020;-68
2021/12/10 08:19:11;;;;;;;39.63;27.88;;;179.70;2252.80;;;;;;5095721;28;20040;-66
2021/12/10 08:21:37;;;;;;;43.78;30.05;;;179.80;2252.80;;;;;;5095753;28;20024;-68
2021/12/10 08:24:03;;;;;;;53.17;35.05;;;180.00;2252.80;;;;;;5095759;28;20024;-68
2021/12/10 08:26:29;;;;;;;43.60;29.85;;;180.10;2252.80;;;;;;5095625;28;20049;-68
2021/12/10 08:28:55;;;;;;;48.53;28.55;;;;;;;;;;5095578;28;20159;-68
2021/12/10 08:31:21;;;;;;;42.95;29.08;;;;;;;;;;5095108;28;20040;-67
2021/12/10 08:33:49;;;;;;;39.67;24.42;;;;;;;;;;5095417;28;20042;-68
2021/12/10 08:36:16;;;;;;;33.58;23.75;;;;;;;;;;5095577;28;20020;-67
2021/12/10 08:38:43;;;;;;;38.15;27.00;;;;;;;;;;5095076;28;20036;-67
2021/12/10 08:41:11;;;;;;;31.25;22.95;;;;;;;;;;5095456;28;20024;-67
2021/12/10 08:43:38;;;;;;;40.72;28.42;;;205.10;2252.80;;;;;;5095455;28;20024;-68
2021/12/10 08:46:05;;;;;;;48.20;27.42;;;205.10;2252.80;;;;;;5095218;28;20020;-68
2021/12/10 08:48:33;;;;;;;35.42;22.20;;;205.20;2252.80;;;;;;5094976;28;20020;-67
2021/12/10 08:51:01;;;;;;;29.20;22.30;;;205.30;2252.80;;;;;;5095217;28;20028;-68
2021/12/10 08:53:28;;;;;;;33.13;25.17;;;;;;;;;;5095013;28;20020;-68
2021/12/10 08:55:56;;;;;;;23.33;17.30;;;205.00;2252.80;;;;;;5095175;28;20032;-66
2021/12/10 08:58:22;;;;;;;20.20;15.50;;;180.10;2252.80;;;;;;5095025;28;20123;-67
2021/12/10 09:01:11;;;;;;;19.80;15.40;;;179.90;2252.80;;;;;;5094842;28;20243;-67
2021/12/10 09:03:36;;;;;;;26.90;20.17;;;204.80;2252.80;;;;;;5094927;28;20062;-66
2021/12/10 09:06:05;;;;;;;45.13;28.45;;;205.10;2252.80;;;;;;5094862;28;20480;-68
2021/12/10 09:08:31;;;;;;;33.50;23.13;;;205.20;2252.80;;;;;;5094803;28;20024;-66
2021/12/10 09:10:58;;;;;;;32.88;22.98;;;205.20;2252.80;;;;;;5094793;28;20031;-67
2021/12/10 09:13:25;;;;;;;28.35;20.85;;;;;;;;;;5095180;28;20755;-66
2021/12/10 09:15:58;;;;;;;36.05;24.05;;;205.00;2252.80;;;;;;5094690;28;20024;-67
2021/12/10 09:18:25;;;;;;;28.55;21.17;;;205.20;2252.80;;;;;;5094774;28;20059;-66
2021/12/10 09:20:54;;;;;;;31.23;22.40;;;205.00;2252.80;;;;;;5094699;28;20104;-66
2021/12/10 09:23:23;;;;;;;69.65;43.25;;;205.10;2252.80;;;;;;5094852;28;20497;-67
2021/12/10 09:25:54;;;;;;;82.10;47.72;;;205.30;2252.80;;;;;;5094216;28;20390;-66
2021/12/10 09:28:22;;;;;;;61.15;36.83;;;205.40;2252.80;;;;;;5094584;28;20021;-67
2021/12/10 09:30:51;;;;;;;51.30;29.95;;;205.40;2252.80;;;;;;5094086;28;20063;-66
2021/12/10 09:33:18;;;;;;;61.13;39.78;;;205.40;2252.80;;;;;;5094173;28;20028;-66
2021/12/10 09:35:44;;;;;;;62.28;38.67;;;205.40;2252.80;;;;;;5094588;28;20024;-67
2021/12/10 09:38:10;;;;;;;40.95;30.48;;;205.40;2252.80;;;;;;5094075;28;20081;-66
2021/12/10 09:40:41;;;;;;;38.17;26.95;;;205.40;2252.80;;;;;;5094239;28;20106;-68
2021/12/10 09:43:09;;;;;;;36.20;26.85;;;205.40;2252.80;;;;;;5093443;28;20016;-67
2021/12/10 09:45:37;;;;;;;40.95;29.25;;;205.40;2252.80;;;;;;5093998;28;20024;-67
2021/12/10 09:48:05;;;;;;;45.83;31.73;;;205.40;2252.80;;;;;;5093754;28;20023;-66
2021/12/10 09:50:36;;;;;;;45.08;32.60;;;205.40;2252.80;;;;;;5094105;28;20474;-67
2021/12/10 09:53:04;;;;;;;50.40;35.50;;;205.50;2252.80;;;;;;5093661;28;20020;-68
2021/12/10 09:55:30;;;;;;;248.75;147.88;;;205.30;2252.80;;;;;;5093917;28;20103;-69
2021/12/10 09:57:56;;;;;;;112.63;73.85;;;205.30;2252.80;;;;;;5093620;28;20036;-67
2021/12/10 10:00:38;;;;;;;80.78;53.85;;;205.40;2252.80;;;;;;5093709;28;20025;-67
2021/12/10 10:03:06;;;;;;;63.55;42.72;;;205.40;2252.80;;;;;;5093719;28;20023;-68
2021/12/10 10:05:33;;;;;;;71.38;51.72;;;;;;;;;;5093686;28;20028;-68
2021/12/10 10:08:01;;;;;;;110.43;70.63;;;;;;;;;;5093390;28;20020;-68
2021/12/10 10:10:28;;;;;;;89.32;61.95;;;205.50;2252.80;;;;;;5075259;28;20072;-67
2021/12/10 10:12:56;;;;;;;64.15;42.97;;;205.60;2252.80;;;;;;5093416;28;20024;-67
2021/12/10 10:15:27;;;;;;;77.15;50.17;;;205.60;2252.80;;;;;;5093658;28;20405;-67
2021/12/10 10:17:58;;;;;;;77.20;47.25;;;230.40;2252.80;;;;;;5093352;28;20036;-67
2021/12/10 10:20:27;;;;;;;72.30;47.22;;;205.70;2252.80;;;;;;5093237;28;20077;-68
2021/12/10 10:22:53;;;;;;;60.65;41.42;;;205.50;2252.80;;;;;;5093294;28;20119;-67
2021/12/10 10:25:25;;;;;;;58.38;40.78;;;205.40;2252.80;;;;;;5093456;28;20141;-67
2021/12/10 10:27:51;;;;;;;55.70;41.15;;;205.30;2252.80;;;;;;5093162;28;20032;-67
2021/12/10 10:30:32;;;;;;;62.97;44.67;;;205.30;2252.80;;;;;;5092986;28;20513;-66
2021/12/10 10:33:01;;;;;;;67.38;48.03;;;205.60;2252.80;;;;;;5092997;28;20140;-66
2021/12/10 10:35:30;;;;;;;92.18;61.85;;;;;;;;;;5093132;28;20024;-67
2021/12/10 10:37:56;;;;;;;81.80;57.95;;;;;;;;;;5093271;28;20036;-66
2021/12/10 10:40:24;;;;;;;69.43;48.65;;;;;;;;;;5093104;28;20485;-66
2021/12/10 10:42:51;;;;;;;51.33;36.40;;;;;;;;;;5093073;28;20059;-67
2021/12/10 10:45:20;;;;;;;51.97;36.03;;;;;;;;;;5092862;28;20028;-67
2021/12/10 10:47:47;;;;;;;110.63;73.72;;;;;;;;;;5092957;28;20063;-67
2021/12/10 10:50:15;;;;;;;58.95;41.65;;;;;;;;;;5092975;28;20016;-68
2021/12/10 10:52:43;;;;;;;77.53;50.33;;;;;;;;;;5092836;28;20069;-68
2021/12/10 10:55:15;;;;;;;60.95;41.22;;;;;;;;;;5092983;28;20077;-67
2021/12/10 10:57:53;;;;;;;49.60;33.35;;;;;;;;;;5092750;28;20032;-67
2021/12/10 11:00:44;;;;;;;47.63;32.28;;;230.80;2252.80;;;;;;5092560;28;20036;-67
2021/12/10 11:03:17;;;;;;;47.42;33.22;;;230.80;2252.80;;;;;;5092790;28;20233;-67
2021/12/10 11:05:56;;;;;;;47.65;33.92;;;230.90;2252.80;;;;;;5092590;28;20062;-67
2021/12/10 11:08:28;;;;;;;49.75;35.40;;;;;;;;;;5093024;28;20435;-67
2021/12/10 11:10:58;;;;;;;50.80;35.28;;;;;;;;;;5092525;28;20393;-68
2021/12/10 11:13:26;;;;;;;50.17;35.90;;;;;;;;;;5092711;28;20103;-68
2021/12/10 11:15:55;;;;;;;51.15;36.85;;;;;;;;;;5092655;28;20021;-68
2021/12/10 11:18:21;;;;;;;51.20;37.28;;;;;;;;;;5092615;28;20036;-68
2021/12/10 11:20:47;;;;;;;47.60;36.28;;;;;;;;;;5092459;28;20052;-68
2021/12/10 11:23:16;;;;;;;51.05;35.97;;;;;;;;;;5092595;28;20023;-69
2021/12/10 11:25:48;;;;;;;48.40;34.85;;;;;;;;;;5092239;28;20020;-68
2021/12/10 11:28:25;;;;;;;42.03;31.60;;;;;;;;;;5092011;28;20501;-67
2021/12/10 11:30:53;;;;;;;45.30;32.70;;;;;;;;;;5092043;28;20060;-68
2021/12/10 11:33:25;;;;;;;74.82;52.63;;;;;;;;;;5092072;28;20157;-68
2021/12/10 11:35:54;;;;;;;47.40;34.63;;;;;;;;;;5091931;28;20020;-67
2021/12/10 11:38:24;;;;;;;45.00;33.20;;;230.70;2252.80;;;;;;5092036;28;20044;-67
2021/12/10 11:41:04;;;;;;;50.97;36.63;;;230.70;2252.80;;;;;;5092177;28;20017;-67
2021/12/10 11:43:55;;;;;;;53.65;38.15;;;230.70;2252.80;;;;;;5092090;28;20116;-68
2021/12/10 11:49:39;;;;;;;54.03;38.83;;;230.80;2252.80;;;;;;5089159;28;20039;-66
2021/12/10 11:52:14;;;;;;;48.42;36.28;;;230.80;2252.80;;;;;;5092081;28;20026;-66
2021/12/10 11:54:42;;;;;;;44.88;32.63;;;230.80;2252.80;;;;;;5092091;28;20107;-66
2021/12/10 11:57:14;;;;;;;46.30;34.85;;;230.80;2252.80;;;;;;5091726;28;20048;-67
2021/12/10 11:59:39;;;;;;;45.92;33.35;;;230.80;2252.80;;;;;;5092083;28;20557;-73
2021/12/10 12:02:09;;;;;;;50.58;36.55;;;230.90;2252.80;;;;;;5092066;28;20032;-68
2021/12/10 12:04:45;;;;;;;51.00;36.47;;;230.90;2252.80;;;;;;5092077;28;20023;-67
2021/12/10 12:07:29;;;;;;;58.28;38.25;;;;;;;;;;5096310;28;20489;-67
2021/12/10 12:10:05;;;;;;;56.40;37.92;;;230.60;2252.80;;;;;;5095693;28;20080;-68
2021/12/10 12:12:41;;;;;;;56.75;40.03;;;230.60;2252.80;;;;;;5095830;28;20156;-67
2021/12/10 12:15:38;;;;;;;58.65;36.97;;;230.60;2252.80;;;;;;5095976;28;20024;-67
2021/12/10 12:18:25;;;;;;;40.42;27.15;;;230.80;2252.80;;;;;;4993372;28;20054;-68
2021/12/10 12:20:54;;;;;;;58.22;40.85;;;230.70;2252.80;;;;;;4993871;28;20045;-68
2021/12/10 12:26:26;;;;;;;51.13;33.30;;;230.70;2252.80;;;;;;4993559;28;20084;-66
2021/12/10 12:28:54;;;;;;;49.28;32.75;;;;;;;;;;5012945;28;20049;-67
2021/12/10 12:31:23;;;;;;;50.53;34.33;;;230.60;2252.80;;;;;;5013240;28;20483;-67
2021/12/10 12:34:07;;;;;;;45.63;31.92;;;230.70;2252.80;;;;;;5012905;28;20022;-67
2021/12/10 12:36:36;;;;;;;53.38;36.60;;;230.70;2252.80;;;;;;5013020;28;20030;-67
2021/12/10 12:39:15;;;;;;;136.50;86.18;;;230.70;2252.80;;;;;;5012981;28;20040;-68
2021/12/10 12:41:44;;;;;;;47.00;33.85;;;230.80;2252.80;;;;;;5012980;28;20030;-68
2021/12/10 12:44:27;;;;;;;38.22;27.80;;;230.70;2252.80;;;;;;5013149;28;20041;-68
2021/12/10 12:46:59;;;;;;;44.95;31.65;;;230.60;2252.80;;;;;;5013103;28;20029;-67
2021/12/10 12:49:31;;;;;;;55.92;42.40;;;230.60;2252.80;;;;;;4996104;28;20128;-66
2021/12/10 12:52:38;;;;;;;47.22;32.72;;;230.40;2252.80;;;;;;5012796;28;20029;-67
2021/12/10 12:55:31;;;;;;;43.50;30.13;;;230.60;2252.80;;;;;;5007840;28;20501;-67
2021/12/10 12:58:06;;;;;;;98.55;59.72;;;230.70;2252.80;;;;;;5012148;28;20041;-67
2021/12/10 13:00:38;;;;;;;50.53;36.35;;;;;;;;;;5012667;28;20152;-68
2021/12/10 13:03:11;;;;;;;54.60;36.83;;;230.60;2252.80;;;;;;5012385;28;20101;-68
2021/12/10 13:05:54;;;;;;;69.97;47.08;;;230.60;2252.80;;;;;;5012447;28;20026;-67
2021/12/10 13:08:27;;;;;;;97.68;66.63;;;230.50;2252.80;;;;;;5012317;28;20052;-67
2021/12/10 13:11:14;;;;;;;42.40;31.08;;;230.70;2252.80;;;;;;5012556;28;20080;-67
2021/12/10 13:13:51;;;;;;;45.05;30.85;;;230.60;2252.80;;;;;;5012058;28;20233;-67
2021/12/10 13:16:50;;;;;;;76.28;52.65;;;230.60;2252.80;;;;;;5011454;28;20117;-68